Time;durP1;ratioP1;P1;durP2;ratioP2;P2;SDS_P1;SDS_P2;PMS_P1;PMS_P2;Temp;Humidity;BMP_temperature;BMP_pressure;BME280_temperature;BME280_humidity;BME280_pressure;Samples;Min_cycle;Max_cycle;Signal;HPM_P1;HPM_P2
2023/08/31 00:00:49;;;;;;;5.10;2.05;;;14.30;99.90;;;;;;4883398;29;20243;-83
2023/08/31 00:03:14;;;;;;;7.05;2.13;;;14.30;99.90;;;;;;4889954;29;20445;-83
2023/08/31 00:05:42;;;;;;;2.88;1.85;;;14.30;99.90;;;;;;4899377;29;20028;-84
2023/08/31 00:08:08;;;;;;;2.67;2.00;;;14.20;99.90;;;;;;4904046;29;20020;-83
2023/08/31 00:10:35;;;;;;;4.05;2.05;;;14.20;99.90;;;;;;4901078;29;20020;-83
2023/08/31 00:13:01;;;;;;;4.70;1.83;;;14.20;99.90;;;;;;4901212;29;20139;-84
2023/08/31 00:15:28;;;;;;;3.35;1.83;;;14.10;99.90;;;;;;4883444;29;20832;-83
2023/08/31 00:17:56;;;;;;;3.47;1.88;;;14.10;99.90;;;;;;4900816;29;20068;-84
2023/08/31 00:20:22;;;;;;;3.83;2.00;;;14.10;99.90;;;;;;4882207;29;20083;-83
2023/08/31 00:22:48;;;;;;;5.78;2.17;;;14.00;99.90;;;;;;4887264;29;20468;-83
2023/08/31 00:25:16;;;;;;;3.30;1.90;;;14.10;99.90;;;;;;4901670;29;20218;-83
2023/08/31 00:27:42;;;;;;;5.68;1.83;;;14.10;99.90;;;;;;4899843;29;20046;-83
2023/08/31 00:30:09;;;;;;;3.97;2.40;;;14.00;99.90;;;;;;4885066;29;20058;-84
2023/08/31 00:32:39;;;;;;;6.45;2.08;;;13.90;99.90;;;;;;4900306;29;20039;-83
2023/08/31 00:35:08;;;;;;;5.45;2.65;;;13.90;99.90;;;;;;4886860;29;20107;-83
2023/08/31 00:37:34;;;;;;;3.05;2.30;;;13.90;99.90;;;;;;4899286;29;20028;-83
2023/08/31 00:39:59;;;;;;;4.85;2.88;;;13.80;99.90;;;;;;4900883;29;20505;-83
2023/08/31 00:42:29;;;;;;;7.55;2.65;;;13.80;99.90;;;;;;4900284;29;20064;-84
2023/08/31 00:44:55;;;;;;;6.35;3.10;;;13.80;99.90;;;;;;4900638;29;20028;-83
2023/08/31 00:47:21;;;;;;;5.25;2.95;;;13.70;99.90;;;;;;4883875;29;20080;-83
2023/08/31 00:49:47;;;;;;;7.70;3.00;;;13.60;99.90;;;;;;4883566;29;20417;-83
2023/08/31 00:52:13;;;;;;;6.30;3.45;;;13.60;99.90;;;;;;4899913;29;20108;-84
2023/08/31 00:54:39;;;;;;;4.70;3.60;;;13.60;99.90;;;;;;4890467;29;20115;-83
2023/08/31 00:57:04;;;;;;;6.80;3.10;;;13.60;99.90;;;;;;4921388;29;20044;-84
2023/08/31 00:59:30;;;;;;;4.15;2.88;;;13.60;99.90;;;;;;4894177;29;20072;-83
2023/08/31 01:02:21;;;;;;;9.05;3.85;;;13.60;99.90;;;;;;4882202;29;20111;-83
2023/08/31 01:05:08;;;;;;;5.38;3.15;;;13.60;99.90;;;;;;4903175;29;20016;-85
2023/08/31 01:07:48;;;;;;;6.82;4.03;;;13.50;99.90;;;;;;4884083;29;20052;-84
2023/08/31 01:10:46;;;;;;;6.63;3.28;;;13.50;99.90;;;;;;4884994;29;20031;-84
2023/08/31 01:13:15;;;;;;;7.32;3.65;;;13.50;99.90;;;;;;4885462;29;20036;-84
2023/08/31 01:15:53;;;;;;;8.88;3.88;;;13.40;99.90;;;;;;4898307;29;20036;-84
2023/08/31 01:18:25;;;;;;;10.00;4.45;;;13.40;99.90;;;;;;4900893;29;20024;-84
2023/08/31 01:21:21;;;;;;;6.60;4.63;;;13.40;99.90;;;;;;4901120;29;20027;-83
2023/08/31 01:23:50;;;;;;;9.98;4.10;;;13.40;99.90;;;;;;4898764;29;20528;-84
2023/08/31 01:26:17;;;;;;;6.53;4.60;;;13.30;99.90;;;;;;4896793;29;20127;-84
2023/08/31 01:28:43;;;;;;;7.93;4.45;;;13.30;99.90;;;;;;4901436;29;20032;-83
2023/08/31 01:31:09;;;;;;;9.27;4.20;;;13.20;99.90;;;;;;4889574;29;20024;-84
2023/08/31 01:33:35;;;;;;;9.68;4.45;;;13.10;99.90;;;;;;4890854;29;20488;-85
2023/08/31 01:36:08;;;;;;;7.90;3.90;;;13.10;99.90;;;;;;4887842;29;20277;-84
2023/08/31 01:38:37;;;;;;;12.88;4.95;;;13.10;99.90;;;;;;4898589;29;20469;-84
2023/08/31 01:41:10;;;;;;;9.02;4.40;;;13.10;99.90;;;;;;4889958;29;20028;-84
2023/08/31 01:43:36;;;;;;;;;;;13.10;99.90;;;;;;4886491;29;20587;-84
2023/08/31 01:46:04;;;;;;;9.32;4.57;;;13.10;99.90;;;;;;4898573;29;20002;-84
2023/08/31 01:48:30;;;;;;;6.25;4.57;;;13.10;99.90;;;;;;4896746;29;20024;-83
2023/08/31 01:50:56;;;;;;;7.55;4.88;;;13.00;99.90;;;;;;4890206;29;20031;-84
2023/08/31 01:53:22;;;;;;;7.07;4.93;;;12.90;99.90;;;;;;4897804;29;20032;-84
2023/08/31 01:55:48;;;;;;;6.30;4.10;;;12.90;99.90;;;;;;4900315;29;20035;-84
2023/08/31 01:58:13;;;;;;;6.47;4.88;;;13.00;99.90;;;;;;4890919;29;20020;-84
2023/08/31 02:00:39;;;;;;;7.68;5.13;;;12.90;99.90;;;;;;4898993;29;20332;-84
2023/08/31 02:03:06;;;;;;;7.65;4.80;;;12.90;99.90;;;;;;4898174;29;20033;-83
2023/08/31 02:05:31;;;;;;;8.18;4.78;;;13.00;99.90;;;;;;4886980;29;20075;-84
2023/08/31 02:07:57;;;;;;;5.03;4.50;;;12.90;99.90;;;;;;4898158;29;20814;-84
2023/08/31 02:10:22;;;;;;;6.85;5.22;;;12.90;99.90;;;;;;4888255;29;20024;-83
2023/08/31 02:12:48;;;;;;;9.32;5.13;;;12.80;99.90;;;;;;4889673;29;20016;-85
2023/08/31 02:15:16;;;;;;;10.55;5.15;;;12.80;99.90;;;;;;4889677;29;20027;-84
2023/08/31 02:17:43;;;;;;;10.23;5.28;;;12.80;99.90;;;;;;4890497;29;20025;-84
2023/08/31 02:20:09;;;;;;;7.95;5.50;;;12.80;99.90;;;;;;4901778;29;20038;-85
2023/08/31 02:22:35;;;;;;;6.43;5.68;;;12.70;99.90;;;;;;4899371;29;20493;-84
2023/08/31 02:25:01;;;;;;;12.13;5.50;;;12.70;99.90;;;;;;4899810;29;20103;-84
2023/08/31 02:27:27;;;;;;;10.48;5.75;;;12.70;99.90;;;;;;4897142;29;20043;-85
2023/08/31 02:29:52;;;;;;;7.32;5.70;;;12.70;99.90;;;;;;4905978;29;20036;-84
2023/08/31 02:32:18;;;;;;;8.43;5.18;;;12.70;99.90;;;;;;4885289;29;20550;-84
2023/08/31 02:34:43;;;;;;;8.02;5.72;;;12.60;99.90;;;;;;4904384;29;20033;-83
2023/08/31 02:37:09;;;;;;;15.23;6.40;;;12.70;99.90;;;;;;4893000;29;20592;-85
2023/08/31 02:39:35;;;;;;;10.98;6.03;;;12.60;99.90;;;;;;4903781;29;20027;-84
2023/08/31 02:42:02;;;;;;;9.27;6.40;;;12.70;99.90;;;;;;4903791;29;20036;-84
2023/08/31 02:44:28;;;;;;;9.35;6.20;;;12.70;99.90;;;;;;4893862;29;20095;-85
2023/08/31 02:46:54;;;;;;;12.02;6.95;;;12.70;99.90;;;;;;4903432;29;20464;-84
2023/08/31 02:49:19;;;;;;;8.65;6.53;;;12.70;99.90;;;;;;4893121;29;20020;-85
2023/08/31 02:51:45;;;;;;;8.00;6.63;;;12.70;99.90;;;;;;4905197;29;20020;-84
2023/08/31 02:54:10;;;;;;;14.73;7.97;;;12.60;99.90;;;;;;4903768;29;20119;-84
2023/08/31 02:56:36;;;;;;;11.35;7.57;;;12.60;99.90;;;;;;4894835;29;20063;-85
2023/08/31 02:59:01;;;;;;;12.23;6.97;;;12.60;99.90;;;;;;4904105;29;20060;-85
2023/08/31 03:01:27;;;;;;;10.63;7.82;;;12.60;99.90;;;;;;4908469;29;20019;-86
2023/08/31 03:03:55;;;;;;;10.15;7.88;;;12.50;99.90;;;;;;4915028;29;20370;-84
2023/08/31 03:06:20;;;;;;;10.68;7.93;;;12.60;99.90;;;;;;4889743;29;20034;-85
2023/08/31 03:08:46;;;;;;;13.13;7.80;;;12.60;99.90;;;;;;4891287;29;20102;-85
2023/08/31 03:11:14;;;;;;;16.58;8.70;;;12.60;99.90;;;;;;4892195;29;20039;-85
2023/08/31 03:13:42;;;;;;;11.38;8.02;;;12.60;99.90;;;;;;4907800;29;20117;-85
2023/08/31 03:16:10;;;;;;;11.10;7.65;;;12.60;99.90;;;;;;4903515;29;20135;-85
2023/08/31 03:18:35;;;;;;;11.27;8.52;;;12.70;99.90;;;;;;4903676;29;20032;-85
2023/08/31 03:21:01;;;;;;;12.57;7.68;;;12.70;99.90;;;;;;4898673;29;20032;-85
2023/08/31 03:23:26;;;;;;;16.13;8.57;;;12.70;99.90;;;;;;4892887;29;20033;-85
2023/08/31 03:25:52;;;;;;;10.57;7.53;;;12.60;99.90;;;;;;4892716;29;20525;-85
2023/08/31 03:28:20;;;;;;;10.13;7.50;;;12.60;99.90;;;;;;4892955;29;20409;-86
2023/08/31 03:30:45;;;;;;;15.45;7.07;;;12.50;99.90;;;;;;4903874;29;20193;-85
2023/08/31 03:33:12;;;;;;;12.88;7.20;;;12.50;99.90;;;;;;4884910;29;20033;-85
2023/08/31 03:35:38;;;;;;;12.02;7.85;;;12.50;99.90;;;;;;4890756;29;20068;-85
2023/08/31 03:38:03;;;;;;;9.80;7.68;;;12.40;99.90;;;;;;4901508;29;20066;-85
2023/08/31 03:40:29;;;;;;;10.57;7.38;;;12.40;99.90;;;;;;4892314;29;20093;-85
2023/08/31 03:42:54;;;;;;;11.15;7.70;;;12.40;99.90;;;;;;4890961;29;20052;-85
2023/08/31 03:45:20;;;;;;;13.45;7.32;;;12.30;99.90;;;;;;4889704;29;20020;-84
2023/08/31 03:47:46;;;;;;;10.07;7.57;;;12.20;99.90;;;;;;4893305;29;20382;-85
2023/08/31 03:50:12;;;;;;;8.73;7.38;;;12.10;99.90;;;;;;4891520;29;20482;-85
2023/08/31 03:52:40;;;;;;;13.05;7.75;;;12.20;99.90;;;;;;4891515;29;20035;-85
2023/08/31 03:55:06;;;;;;;8.60;7.45;;;12.20;99.90;;;;;;4884402;29;20038;-86
2023/08/31 03:57:31;;;;;;;10.38;7.18;;;12.20;99.90;;;;;;4884759;29;20575;-85
2023/08/31 03:59:57;;;;;;;9.10;7.50;;;12.30;99.90;;;;;;4903997;29;20025;-85
2023/08/31 04:02:23;;;;;;;14.30;8.57;;;12.30;99.90;;;;;;4902205;29;20543;-86
2023/08/31 04:04:48;;;;;;;8.77;7.75;;;12.20;99.90;;;;;;4904469;29;20028;-85
2023/08/31 04:07:14;;;;;;;14.80;8.23;;;12.20;99.90;;;;;;4903169;29;20020;-85
2023/08/31 04:09:42;;;;;;;11.57;8.52;;;12.10;99.90;;;;;;4887517;29;20020;-86
2023/08/31 04:12:10;;;;;;;12.60;8.27;;;12.10;99.90;;;;;;4904993;29;20028;-86
2023/08/31 04:14:35;;;;;;;11.93;9.00;;;12.20;99.90;;;;;;4892233;29;20051;-86
2023/08/31 04:17:01;;;;;;;23.20;9.18;;;12.20;99.90;;;;;;4891359;29;20068;-86
2023/08/31 04:19:26;;;;;;;12.90;9.90;;;12.20;99.90;;;;;;4891413;29;20520;-86
2023/08/31 04:21:52;;;;;;;14.65;9.45;;;12.30;99.90;;;;;;4887589;29;20040;-85
2023/08/31 04:24:18;;;;;;;14.50;10.45;;;12.30;99.90;;;;;;4892011;29;20159;-85
2023/08/31 04:26:44;;;;;;;14.73;9.77;;;12.30;99.90;;;;;;4890706;29;20479;-84
2023/08/31 04:29:10;;;;;;;16.83;10.15;;;12.40;99.90;;;;;;4889915;29;20039;-86
2023/08/31 04:31:35;;;;;;;16.92;11.10;;;12.30;99.90;;;;;;4901572;29;20478;-85
2023/08/31 04:34:04;;;;;;;16.05;11.13;;;12.40;99.90;;;;;;4890531;29;20031;-85
2023/08/31 04:36:30;;;;;;;20.35;12.95;;;12.30;99.90;;;;;;4892854;29;20116;-86
2023/08/31 04:38:56;;;;;;;23.05;13.57;;;12.30;99.90;;;;;;4892167;29;20024;-84
2023/08/31 04:41:21;;;;;;;20.83;11.80;;;12.40;99.90;;;;;;4884128;29;20420;-86
2023/08/31 04:43:50;;;;;;;16.92;12.50;;;12.40;99.90;;;;;;4888223;29;20028;-86
2023/08/31 04:46:15;;;;;;;19.58;13.35;;;12.40;99.90;;;;;;4882380;29;20437;-86
2023/08/31 04:48:41;;;;;;;22.23;13.82;;;12.40;99.90;;;;;;4902090;29;20036;-86
2023/08/31 04:51:09;;;;;;;22.17;15.20;;;12.40;99.90;;;;;;4885411;29;20501;-86
2023/08/31 04:53:35;;;;;;;21.50;13.93;;;12.40;99.90;;;;;;4891809;29;20392;-86
2023/08/31 04:56:00;;;;;;;26.02;15.38;;;12.40;99.90;;;;;;4885624;29;20040;-86
2023/08/31 04:58:28;;;;;;;19.70;14.80;;;12.50;99.90;;;;;;4885344;29;20024;-85
2023/08/31 05:00:59;;;;;;;19.48;13.98;;;12.50;99.90;;;;;;4884147;29;20089;-86
2023/08/31 05:03:24;;;;;;;23.75;15.15;;;12.50;99.90;;;;;;4896613;29;20025;-86
2023/08/31 05:05:50;;;;;;;21.85;14.52;;;12.60;99.90;;;;;;4895547;29;20354;-85
2023/08/31 05:08:15;;;;;;;22.40;14.35;;;12.70;99.90;;;;;;4910201;29;20028;-86
2023/08/31 05:10:41;;;;;;;24.50;15.23;;;12.80;99.90;;;;;;4899784;29;20575;-86
2023/08/31 05:13:08;;;;;;;20.75;14.88;;;12.80;99.90;;;;;;4891077;29;20143;-86
2023/08/31 05:15:34;;;;;;;23.20;15.52;;;12.80;99.90;;;;;;4899846;29;20500;-86
2023/08/31 05:18:03;;;;;;;25.35;14.32;;;12.80;99.90;;;;;;4892504;29;20643;-86
2023/08/31 05:20:29;;;;;;;22.30;14.73;;;12.80;99.90;;;;;;4890189;29;20453;-86
2023/08/31 05:22:54;;;;;;;23.45;16.25;;;12.90;99.90;;;;;;4889939;29;20000;-85
2023/08/31 05:25:20;;;;;;;25.33;15.13;;;12.90;99.90;;;;;;4914187;29;20036;-86
2023/08/31 05:27:45;;;;;;;22.98;15.43;;;13.00;99.90;;;;;;4913371;29;20078;-85
2023/08/31 05:30:12;;;;;;;22.42;14.95;;;13.00;99.90;;;;;;4897008;29;20084;-86
2023/08/31 05:32:37;;;;;;;21.77;15.05;;;13.10;99.90;;;;;;4890686;29;20020;-86
2023/08/31 05:35:03;;;;;;;24.30;14.43;;;13.10;99.90;;;;;;4902154;29;20032;-86
2023/08/31 05:37:33;;;;;;;18.85;13.88;;;13.10;99.90;;;;;;4902483;29;20115;-85
2023/08/31 05:39:59;;;;;;;24.77;16.27;;;13.10;99.90;;;;;;4888052;29;20028;-89
2023/08/31 05:42:24;;;;;;;18.90;13.90;;;13.00;99.90;;;;;;4890566;29;20111;-87
2023/08/31 05:44:50;;;;;;;24.42;15.02;;;13.00;99.90;;;;;;4900634;29;20496;-86
2023/08/31 05:47:18;;;;;;;18.80;14.48;;;13.00;99.90;;;;;;4886327;29;20020;-86
2023/08/31 05:49:45;;;;;;;24.40;14.60;;;13.00;99.90;;;;;;4891465;29;20024;-86
2023/08/31 05:52:11;;;;;;;20.42;14.32;;;13.00;99.90;;;;;;4891406;29;20021;-86
2023/08/31 05:54:36;;;;;;;18.63;14.18;;;13.00;99.90;;;;;;4887945;29;20021;-87
2023/08/31 05:57:03;;;;;;;19.17;13.60;;;13.00;99.90;;;;;;4898247;29;20029;-86
2023/08/31 05:59:29;;;;;;;20.33;14.10;;;13.00;99.90;;;;;;4890833;29;20126;-86
2023/08/31 06:01:54;;;;;;;23.63;14.48;;;13.10;99.90;;;;;;4902144;29;20473;-86
2023/08/31 06:04:20;;;;;;;24.77;14.30;;;13.10;99.90;;;;;;4901207;29;20040;-86
2023/08/31 06:06:47;;;;;;;19.75;14.60;;;13.00;99.90;;;;;;4891201;29;20020;-86
2023/08/31 06:09:13;;;;;;;17.92;13.82;;;13.20;99.90;;;;;;4894899;29;20036;-87
2023/08/31 06:11:39;;;;;;;17.50;13.10;;;13.20;99.90;;;;;;4887191;29;20035;-86
2023/08/31 06:14:04;;;;;;;23.08;15.95;;;13.30;99.90;;;;;;4895021;29;20029;-86
2023/08/31 06:16:30;;;;;;;19.05;13.07;;;13.40;99.90;;;;;;4891089;29;20073;-86
2023/08/31 06:18:56;;;;;;;17.60;13.32;;;13.30;99.90;;;;;;4887978;29;20036;-86
2023/08/31 06:21:21;;;;;;;16.95;13.10;;;13.40;99.90;;;;;;4893853;29;20028;-87
2023/08/31 06:23:51;;;;;;;18.75;13.15;;;13.50;99.90;;;;;;4890998;29;20024;-86
2023/08/31 06:26:17;;;;;;;13.52;11.30;;;13.60;99.90;;;;;;4888290;29;20043;-86
2023/08/31 06:28:43;;;;;;;17.17;12.70;;;13.60;99.90;;;;;;4905671;29;20138;-87
2023/08/31 06:31:08;;;;;;;14.85;10.95;;;13.70;99.90;;;;;;4894196;29;20028;-86
2023/08/31 06:33:34;;;;;;;15.23;9.55;;;13.70;99.90;;;;;;4906440;29;20028;-86
2023/08/31 06:36:00;;;;;;;23.77;11.23;;;13.70;99.90;;;;;;4887327;29;20548;-86
2023/08/31 06:38:27;;;;;;;15.68;10.48;;;13.60;99.90;;;;;;4905224;29;20038;-86
2023/08/31 06:40:58;;;;;;;14.52;10.18;;;13.80;99.90;;;;;;4889826;29;20060;-87
2023/08/31 06:43:26;;;;;;;14.65;10.00;;;13.80;99.90;;;;;;4892459;29;20561;-88
2023/08/31 06:45:55;;;;;;;15.57;9.60;;;13.70;99.90;;;;;;4905874;29;20029;-87
2023/08/31 06:48:21;;;;;;;14.65;10.05;;;13.70;99.90;;;;;;4887056;29;20025;-87
2023/08/31 06:50:47;;;;;;;14.25;8.85;;;13.90;99.90;;;;;;4903477;29;20136;-87
2023/08/31 06:53:13;;;;;;;14.95;8.30;;;14.00;99.90;;;;;;4894510;29;20056;-87
2023/08/31 06:55:38;;;;;;;13.13;9.13;;;14.10;99.90;;;;;;4892209;29;20409;-85
2023/08/31 06:58:05;;;;;;;11.25;8.38;;;14.00;99.90;;;;;;4905254;29;20032;-88
2023/08/31 07:00:32;;;;;;;11.43;7.35;;;14.10;99.90;;;;;;4903738;29;20119;-86
2023/08/31 07:02:58;;;;;;;8.32;7.40;;;14.20;99.90;;;;;;4903800;29;20029;-86
2023/08/31 07:05:26;;;;;;;9.23;7.22;;;14.30;99.90;;;;;;4891922;29;20370;-86
2023/08/31 07:07:55;;;;;;;9.43;8.43;;;14.40;99.90;;;;;;4892826;29;20048;-87
2023/08/31 07:10:23;;;;;;;10.25;7.25;;;14.50;99.90;;;;;;4889445;29;20027;-86
2023/08/31 07:12:49;;;;;;;16.00;7.05;;;14.40;99.90;;;;;;4901555;29;20020;-84
2023/08/31 07:15:14;;;;;;;12.68;7.55;;;14.30;99.90;;;;;;4904144;29;20024;-86
2023/08/31 07:17:40;;;;;;;12.63;6.93;;;14.40;99.90;;;;;;4903752;29;20854;-86
2023/08/31 07:20:06;;;;;;;9.70;7.07;;;14.50;99.90;;;;;;4887312;29;20489;-87
2023/08/31 07:22:35;;;;;;;11.25;7.50;;;14.50;99.90;;;;;;4892649;29;20185;-86
2023/08/31 07:25:03;;;;;;;7.80;6.65;;;14.60;99.90;;;;;;4904089;29;20020;-85
2023/08/31 07:27:29;;;;;;;8.13;6.43;;;14.60;99.90;;;;;;4902903;29;20051;-86
2023/08/31 07:29:58;;;;;;;18.35;6.93;;;14.80;99.90;;;;;;4904607;29;20020;-86
2023/08/31 07:32:23;;;;;;;10.00;6.28;;;14.90;99.90;;;;;;4903989;29;20028;-85
2023/08/31 07:34:49;;;;;;;6.65;5.95;;;14.90;99.90;;;;;;4891917;29;20032;-85
2023/08/31 07:37:15;;;;;;;7.82;6.20;;;15.00;99.90;;;;;;4894000;29;20474;-86
2023/08/31 07:39:40;;;;;;;12.40;6.22;;;15.10;99.90;;;;;;4892249;29;20041;-86
2023/08/31 07:42:08;;;;;;;7.55;5.88;;;15.10;99.90;;;;;;4901815;29;20219;-86
2023/08/31 07:44:34;;;;;;;10.43;5.85;;;15.10;99.90;;;;;;4892890;29;20429;-87
2023/08/31 07:47:00;;;;;;;8.50;4.78;;;15.30;99.90;;;;;;4898733;29;20029;-87
2023/08/31 07:49:25;;;;;;;7.57;5.25;;;15.30;99.90;;;;;;4889563;29;20024;-86
2023/08/31 07:51:51;;;;;;;8.85;5.45;;;15.30;99.90;;;;;;4885979;29;20175;-86
2023/08/31 07:54:23;;;;;;;9.55;4.95;;;15.40;99.90;;;;;;4889467;29;20032;-86
2023/08/31 07:56:49;;;;;;;11.03;6.40;;;15.50;99.90;;;;;;4883622;29;20517;-85
2023/08/31 07:59:16;;;;;;;9.95;5.38;;;15.60;99.90;;;;;;4892361;29;20097;-84
2023/08/31 08:01:42;;;;;;;7.00;4.85;;;15.70;99.90;;;;;;4886834;29;20103;-84
2023/08/31 08:04:07;;;;;;;5.72;4.88;;;15.80;99.90;;;;;;4902876;29;20028;-83
2023/08/31 08:06:33;;;;;;;8.65;4.32;;;15.90;99.90;;;;;;4884683;29;20068;-84
2023/08/31 08:08:59;;;;;;;8.15;5.15;;;15.90;99.90;;;;;;4901279;29;20036;-84
2023/08/31 08:11:27;;;;;;;6.75;4.50;;;16.00;99.90;;;;;;4888861;29;20453;-84
2023/08/31 08:13:52;;;;;;;6.28;4.32;;;16.20;99.90;;;;;;4897531;29;20040;-84
2023/08/31 08:16:20;;;;;;;8.65;4.72;;;16.30;99.90;;;;;;4901586;29;20039;-84
2023/08/31 08:18:48;;;;;;;4.65;3.45;;;16.40;99.90;;;;;;4901689;29;20028;-84
2023/08/31 08:21:16;;;;;;;5.35;3.80;;;16.40;99.90;;;;;;4901350;29;20183;-84
2023/08/31 08:23:42;;;;;;;6.20;3.53;;;16.50;99.90;;;;;;4901091;29;20024;-84
2023/08/31 08:26:07;;;;;;;7.00;3.92;;;16.70;99.90;;;;;;4902441;29;20445;-84
2023/08/31 08:28:33;;;;;;;5.00;3.67;;;16.80;99.90;;;;;;4890282;29;20040;-85
2023/08/31 08:31:05;;;;;;;6.85;3.30;;;16.90;99.90;;;;;;4889703;29;20031;-84
2023/08/31 08:33:33;;;;;;;9.23;3.88;;;17.00;99.90;;;;;;4888103;29;20441;-85
2023/08/31 08:35:59;;;;;;;9.25;4.05;;;17.00;99.90;;;;;;4899287;29;20021;-85
2023/08/31 08:38:25;;;;;;;9.07;4.05;;;17.10;99.90;;;;;;4903474;29;20389;-85
2023/08/31 08:40:51;;;;;;;6.63;3.50;;;16.90;99.90;;;;;;4881961;29;20039;-85
2023/08/31 08:43:24;;;;;;;5.85;3.38;;;16.90;99.90;;;;;;4900729;29;20031;-85
2023/08/31 08:45:50;;;;;;;;;;;16.90;99.90;;;;;;4903480;29;20118;-85
2023/08/31 08:48:17;;;;;;;11.60;3.55;;;17.00;99.90;;;;;;4906170;29;19908;-84
2023/08/31 08:50:50;;;;;;;10.82;3.65;;;17.00;99.90;;;;;;5081942;27;1272733;-86
2023/08/31 08:53:16;;;;;;;7.22;4.05;;;17.00;99.90;;;;;;5096224;28;20376;-84
2023/08/31 08:55:42;;;;;;;6.22;4.13;;;17.00;99.90;;;;;;5098956;28;20024;-81
2023/08/31 08:58:07;;;;;;;9.10;5.40;;;16.90;99.90;;;;;;5097451;28;20019;-81
2023/08/31 09:00:34;;;;;;;7.70;4.20;;;17.00;99.90;;;;;;5097369;28;20035;-81
2023/08/31 09:03:03;;;;;;;12.23;4.40;;;17.00;99.90;;;;;;5102254;28;20111;-85
2023/08/31 09:05:32;;;;;;;3.95;3.55;;;17.20;99.90;;;;;;5102097;28;20106;-86
2023/08/31 09:08:10;;;;;;;10.45;3.97;;;17.30;99.90;;;;;;5095355;28;20687;-87
2023/08/31 09:10:45;;;;;;;5.05;4.35;;;17.60;99.90;;;;;;5114002;28;20028;-86
2023/08/31 09:13:12;;;;;;;6.00;4.30;;;17.80;99.90;;;;;;5097979;28;20016;-85
2023/08/31 09:15:45;;;;;;;7.82;4.00;;;17.90;99.90;;;;;;5095972;28;20036;-85
2023/08/31 09:18:22;;;;;;;7.78;3.90;;;18.10;99.90;;;;;;5096447;28;20052;-84
2023/08/31 09:20:48;;;;;;;5.03;3.83;;;18.10;99.90;;;;;;5101480;28;20060;-85
2023/08/31 09:23:15;;;;;;;5.28;3.92;;;18.30;99.90;;;;;;5111018;28;20088;-84
2023/08/31 09:25:43;;;;;;;9.90;4.28;;;18.30;99.90;;;;;;5095314;28;20381;-82
2023/08/31 09:28:11;;;;;;;6.20;3.47;;;18.40;99.90;;;;;;5092874;28;20477;-82
2023/08/31 09:30:37;;;;;;;5.15;3.30;;;18.30;99.90;;;;;;5094692;28;20036;-85
2023/08/31 09:33:05;;;;;;;5.40;3.58;;;18.20;99.90;;;;;;5094281;28;20026;-84
2023/08/31 09:35:33;;;;;;;6.32;3.83;;;18.20;99.90;;;;;;5097680;28;20024;-84
2023/08/31 09:37:59;;;;;;;11.85;3.28;;;18.20;99.90;;;;;;5101316;28;20031;-84
2023/08/31 09:40:24;;;;;;;8.63;3.63;;;18.30;99.90;;;;;;5096620;28;20048;-84
2023/08/31 09:42:50;;;;;;;12.55;3.78;;;18.60;99.90;;;;;;5096921;28;20048;-84
2023/08/31 09:45:31;;;;;;;4.45;3.42;;;18.90;99.90;;;;;;5099717;28;20023;-84
2023/08/31 09:48:02;;;;;;;13.55;3.60;;;19.20;99.90;;;;;;5095373;28;20052;-84
2023/08/31 09:50:33;;;;;;;6.07;3.65;;;19.10;99.90;;;;;;5096461;28;20032;-84
2023/08/31 09:53:04;;;;;;;6.90;3.50;;;18.80;99.90;;;;;;5090856;28;20036;-84
2023/08/31 09:55:32;;;;;;;6.82;3.65;;;18.80;99.90;;;;;;5098444;28;20032;-84
2023/08/31 09:57:59;;;;;;;5.95;3.40;;;18.80;99.90;;;;;;5087896;28;20059;-83
2023/08/31 10:00:31;;;;;;;7.45;3.80;;;18.70;99.90;;;;;;5107260;27;20032;-85
2023/08/31 10:02:59;;;;;;;17.30;8.18;;;18.70;99.90;;;;;;5103120;28;20016;-84
2023/08/31 10:05:25;;;;;;;11.77;4.95;;;18.80;99.90;;;;;;5086480;28;20032;-84
2023/08/31 10:07:53;;;;;;;8.57;3.25;;;18.80;99.90;;;;;;5079398;28;20099;-85
2023/08/31 10:10:22;;;;;;;3.90;3.35;;;19.10;99.90;;;;;;5083013;28;20055;-85
2023/08/31 10:12:49;;;;;;;8.70;3.63;;;19.70;99.90;;;;;;5084083;28;20028;-85
2023/08/31 10:15:16;;;;;;;9.13;3.63;;;20.30;99.90;;;;;;5079791;28;20020;-85
2023/08/31 10:17:42;;;;;;;6.18;4.30;;;20.50;98.60;;;;;;5081635;28;20102;-85
2023/08/31 10:20:09;;;;;;;7.85;3.42;;;20.40;97.30;;;;;;5083763;28;20023;-85
2023/08/31 10:22:38;;;;;;;4.53;3.45;;;20.20;97.90;;;;;;5080480;28;20028;-84
2023/08/31 10:25:08;;;;;;;7.95;2.97;;;20.10;96.70;;;;;;5080454;28;20040;-81
2023/08/31 10:27:41;;;;;;;9.63;3.72;;;19.70;96.10;;;;;;5076877;28;20028;-81
2023/08/31 10:30:27;;;;;;;9.25;2.95;;;19.50;95.30;;;;;;5079523;28;20060;-84
2023/08/31 10:33:15;;;;;;;8.52;3.03;;;19.40;96.00;;;;;;5082943;28;20134;-85
2023/08/31 10:35:48;;;;;;;3.92;2.78;;;19.30;96.90;;;;;;5065240;28;20056;-85
2023/08/31 10:38:14;;;;;;;;;;;19.30;97.30;;;;;;5078492;28;20024;-84
2023/08/31 10:40:40;;;;;;;5.25;2.70;;;19.30;96.80;;;;;;5089127;28;19911;-84
2023/08/31 10:43:16;;;;;;;4.63;2.78;;;19.30;96.70;;;;;;5086510;28;20028;-85
2023/08/31 10:45:45;;;;;;;4.07;2.42;;;19.60;95.30;;;;;;5081919;28;20032;-84
2023/08/31 10:48:13;;;;;;;5.72;2.80;;;20.00;94.90;;;;;;5085404;28;20031;-84
2023/08/31 10:50:42;;;;;;;7.57;2.78;;;20.40;94.60;;;;;;5084109;28;20067;-85
2023/08/31 10:53:11;;;;;;;4.63;2.72;;;20.70;93.60;;;;;;5081061;28;20049;-85
2023/08/31 10:55:53;;;;;;;7.05;3.00;;;20.70;92.60;;;;;;5083931;28;20035;-86
2023/08/31 10:58:19;;;;;;;5.05;2.70;;;20.90;92.10;;;;;;5081427;28;20153;-85
2023/08/31 11:00:56;;;;;;;5.65;2.33;;;21.00;91.30;;;;;;5084404;28;20024;-85
2023/08/31 11:03:22;;;;;;;5.15;2.83;;;21.00;90.50;;;;;;5082539;28;20051;-85
2023/08/31 11:05:56;;;;;;;6.97;2.53;;;21.20;91.70;;;;;;5082510;28;20423;-84
2023/08/31 11:08:25;;;;;;;9.60;3.15;;;21.20;88.90;;;;;;5082698;28;20651;-84
2023/08/31 11:10:52;;;;;;;4.80;3.38;;;21.50;88.60;;;;;;5083568;28;20392;-84
2023/08/31 11:13:23;;;;;;;1.92;1.83;;;21.50;87.80;;;;;;5083488;28;20456;-85
2023/08/31 11:15:49;;;;;;;14.15;3.00;;;21.40;89.60;;;;;;5072506;28;20535;-85
2023/08/31 11:18:17;;;;;;;11.05;2.97;;;21.30;89.30;;;;;;5061421;28;20104;-84
2023/08/31 11:20:43;;;;;;;13.07;3.35;;;21.50;88.70;;;;;;5062255;28;20029;-84
2023/08/31 11:23:12;;;;;;;9.13;2.47;;;21.70;85.80;;;;;;5060690;28;20013;-83
2023/08/31 11:25:38;;;;;;;19.95;3.35;;;21.50;84.90;;;;;;5069770;28;20024;-84
2023/08/31 11:28:07;;;;;;;4.47;2.22;;;21.60;85.40;;;;;;5069678;28;20384;-84
2023/08/31 11:30:33;;;;;;;11.40;3.50;;;21.60;85.80;;;;;;5063046;28;20357;-84
2023/08/31 11:33:04;;;;;;;3.55;1.77;;;21.60;85.70;;;;;;5063376;28;20963;-84
2023/08/31 11:35:41;;;;;;;9.27;3.08;;;21.40;82.60;;;;;;5058015;28;20052;-86
2023/08/31 11:38:07;;;;;;;5.68;2.92;;;21.40;84.20;;;;;;5061403;28;20016;-84
2023/08/31 11:40:33;;;;;;;6.07;2.45;;;21.60;83.10;;;;;;5065436;28;20027;-87
2023/08/31 11:43:04;;;;;;;5.15;2.65;;;21.70;81.40;;;;;;5066304;28;20369;-84
2023/08/31 11:45:31;;;;;;;6.78;3.40;;;21.70;83.10;;;;;;5065018;28;20040;-84
2023/08/31 11:47:57;;;;;;;3.60;2.80;;;21.90;85.50;;;;;;5064404;28;20028;-83
2023/08/31 11:50:25;;;;;;;5.40;2.83;;;22.20;83.50;;;;;;5063258;28;20040;-83
2023/08/31 11:52:53;;;;;;;4.45;2.90;;;22.10;84.10;;;;;;5065580;28;20445;-83
2023/08/31 11:55:18;;;;;;;9.27;2.80;;;22.10;82.20;;;;;;5064926;28;20029;-84
2023/08/31 11:57:54;;;;;;;12.45;3.60;;;22.20;82.30;;;;;;5063169;28;20027;-84
2023/08/31 12:00:21;;;;;;;5.00;2.60;;;22.00;82.10;;;;;;5066820;28;20038;-83
2023/08/31 12:03:00;;;;;;;48.47;22.10;;;22.20;85.00;;;;;;5052418;28;20119;-82
2023/08/31 12:05:31;;;;;;;34.80;15.18;;;22.10;83.00;;;;;;5066884;28;20032;-83
2023/08/31 12:07:57;;;;;;;6.60;2.88;;;22.20;83.70;;;;;;5192607;22;20049;-84
2023/08/31 12:10:25;;;;;;;4.90;2.45;;;22.10;81.20;;;;;;5025723;28;20574;-86
2023/08/31 12:12:53;;;;;;;5.30;2.55;;;21.70;78.80;;;;;;5026723;28;20434;-85
2023/08/31 12:15:22;;;;;;;6.03;2.28;;;21.70;82.40;;;;;;5026072;28;20094;-84
2023/08/31 12:17:54;;;;;;;4.95;2.35;;;21.50;80.50;;;;;;5024019;28;20071;-85
2023/08/31 12:20:26;;;;;;;8.15;2.80;;;21.30;81.50;;;;;;5043239;28;20052;-83
2023/08/31 12:22:51;;;;;;;6.60;3.43;;;21.10;83.50;;;;;;5042906;28;20458;-86
2023/08/31 12:25:23;;;;;;;7.07;2.42;;;20.90;84.00;;;;;;5043543;28;20279;-83
2023/08/31 12:27:49;;;;;;;5.75;2.55;;;20.90;85.90;;;;;;5043948;28;20366;-84
2023/08/31 12:30:15;;;;;;;3.03;2.60;;;21.00;86.90;;;;;;5024703;28;20500;-83
2023/08/31 12:32:43;;;;;;;2.63;2.53;;;20.90;88.50;;;;;;5042063;28;20029;-85
2023/08/31 12:35:11;;;;;;;7.57;2.50;;;20.50;91.00;;;;;;5026058;28;20025;-85
2023/08/31 12:37:38;;;;;;;4.72;3.38;;;19.50;95.80;;;;;;5022662;28;20021;-82
2023/08/31 12:40:06;;;;;;;3.45;2.90;;;18.40;99.90;;;;;;5026660;28;20090;-87
2023/08/31 12:42:34;;;;;;;4.43;2.95;;;17.40;99.90;;;;;;5028538;28;20033;-87